Weather observations for the past three days for
Hallock Municipal Airport
Metric (Imperial)
Date Time (cdt) Wind (kph) Vis. (km) Weather Sky Cond. Temperature (ºC) Relative Humidity Wind Chill (°C) Heat Index (°C) Pressure Precipitation (cm)
Air Dwpt 6 hour altimeter (cm) sea level (mb) 1 hr 3 hr 6 hr
Max. Min.
06 01:35 SE 11 16.09 Partly Cloudy SCT065 SCT110 19 18 94% 76.17 0.0
06 01:15 SE 15 16.09 Partly Cloudy SCT065 19 19 100% 76.17 0.0
06 00:55 SE 15 16.09 Partly Cloudy SCT065 19 19 100% 76.17 0.0
06 00:35 SE 15 16.09 Partly Cloudy SCT065 SCT100 20 19 94% 76.17 0.0
06 00:15 SE 13 16.09 Partly Cloudy SCT065 SCT070 SCT110 21 19 88% 76.17 0.0
05 23:55 SE 15 16.09 Partly Cloudy SCT065 21 19 88% 76.17 0.0
05 23:35 SE 9 16.09 Partly Cloudy SCT065 21 19 88% 76.2 0.0
05 23:15 SE 24 16.09 Partly Cloudy SCT065 21 19 88% 76.17 0.0
05 22:55 SE 15 16.09 Partly Cloudy SCT065 SCT110 21 19 88% 76.2 0.0
05 22:35 SE 24 16.09 Partly Cloudy SCT065 SCT095 21 19 88% 76.17 0.0
05 22:15 SE 22 16.09 Partly Cloudy SCT065 21 19 88% 76.23 0.0
05 21:55 SE 17 16.09 Partly Cloudy SCT065 22 20 88% 76.2 0.0
05 21:35 E 13 16.09 Partly Cloudy SCT055 SCT100 21 20 94% 76.23 0.0
05 21:15 E 11 16.09 Partly Cloudy SCT055 SCT065 22 20 88% 76.23 0.0
05 20:55 E 9 16.09 Mostly Cloudy BKN039 BKN100 22 21 94% 76.25 0.0
05 20:35 NE 7 16.09 Mostly Cloudy BKN039 22 21 94% 76.23 0.0
05 20:15 N 11 16.09 Partly Cloudy SCT039 SCT060 SCT100 21 20 94% 76.23 0.0
05 19:55 N 6 16.09 Partly Cloudy SCT060 22 21 94% 76.17 0.0
05 19:35 NE 6 16.09 Partly Cloudy SCT060 24 21 83% 24 76.12 0.0
05 19:15 E 11 16.09 Partly Cloudy SCT060 25 21 79% 26 76.07 0.0
05 18:55 NE 7 16.09 Fair CLR 26 21 74% 27 76.07 0.0
05 18:35 E 11 16.09 Fair CLR 25 21 79% 26 76.05 0.0
05 18:15 E 13 16.09 Partly Cloudy SCT110 24 21 83% 24 76.02 0.0
05 17:55 E 19 16.09 Fair CLR 24 21 83% 24 76 0.0
05 17:35 E 15 16.09 Fair CLR 24 21 83% 24 76 0.0
05 17:15 E 11 16.09 Fair CLR 24 20 78% 24 76.05 0.0
05 16:55 E 11 16.09 Partly Cloudy SCT070 25 21 79% 26 76.05 0.0
05 16:35 E 7 16.09 Fair CLR 26 21 74% 27 76.07 0.0
05 16:15 Calm 16.09 Partly Cloudy SCT110 24 21 83% 24 76.1 0.0
05 15:55 Calm 16.09 Fair CLR 25 21 79% 26 76.1 0.0
05 15:35 SE 6 16.09 Fair CLR 25 21 79% 26 76.1 0.0
05 15:15 E 13 16.09 Partly Cloudy SCT070 25 21 79% 26 76.1 0.0
05 12:55 S 24 16.09 Fair CLR 20 19 94% 76.2 0.0
05 12:35 SE 26 16.09 Fair CLR 19 19 100% 76.2 0.0
05 12:15 SE 28 G 35 16.09 Fair CLR 19 18 94% 76.2 0.0
05 11:55 E 26 G 31 16.09 Partly Cloudy SCT020 SCT025 18 18 100% 76.25 0.0
05 11:35 E 19 8.05 Rain SCT019 BKN028 OVC065 18 18 100% 76.33 0.0
05 11:15 E 7 16.09 Light Rain SCT007 SCT029 BKN070 18 18 100% 76.4 0.0
05 10:55 E 7 16.09 Light Rain BKN007 BKN065 19 18 94% 76.4 0.0
05 10:35 N 15 16.09 Mostly Cloudy BKN007 19 18 94% 76.38 0.0
05 10:15 N 11 16.09 Overcast OVC007 19 18 94% 76.4 0.0
05 09:55 N 19 16.09 Overcast OVC009 19 18 94% 76.43 0.0
05 09:35 NW 13 16.09 Mostly Cloudy BKN009 19 18 94% 76.4 0.0
05 09:15 N 6 16.09 Mostly Cloudy BKN007 19 18 94% 76.38 0.0
05 08:55 Calm 16.09 Overcast OVC007 19 18 94% 76.33 0.0
05 08:35 Calm 16.09 Overcast OVC007 18 18 100% 76.3 0.0
05 08:15 SW 6 16.09 Partly Cloudy SCT009 18 18 100% 76.3 0.0
05 07:55 SE 9 16.09 Fair CLR 18 18 100% 76.23 0.0
05 07:35 SE 6 16.09 Partly Cloudy SCT065 17 17 100% 76.23 0.0
05 07:15 SE 13 16.09 Partly Cloudy SCT065 17 17 100% 76.15 0.0
05 06:55 SE 6 16.09 Partly Cloudy SCT065 17 17 100% 76.17 0.0
05 06:35 E 6 16.09 Partly Cloudy SCT065 17 17 100% 76.15 0.0
05 06:15 E 9 16.09 Partly Cloudy SCT065 17 17 100% 76.12 0.0
05 05:55 E 15 16.09 Partly Cloudy SCT065 17 17 100% 76.1 0.0
05 05:35 E 13 16.09 Partly Cloudy SCT065 17 17 100% 76.1 0.0
05 05:15 E 11 16.09 Partly Cloudy SCT055 18 18 100% 76.12 0.0
05 04:55 E 9 16.09 Partly Cloudy SCT055 SCT065 17 17 100% 76.15 0.0
05 04:35 Calm 16.09 Partly Cloudy SCT065 SCT100 17 17 100% 76.15 0.0
05 04:15 E 6 11.27 Partly Cloudy SCT065 SCT100 17 17 100% 76.12 0.0
05 03:55 E 13 11.27 Partly Cloudy SCT065 SCT100 17 17 100% 76.15 0.0
05 03:35 E 7 16.09 Partly Cloudy SCT065 SCT100 17 17 100% 76.2 0.0
05 03:15 Calm 16.09 Partly Cloudy SCT055 17 17 100% 76.2 0.0
05 02:55 E 9 16.09 Partly Cloudy SCT055 17 17 100% 76.2 0.0
05 02:35 E 7 16.09 Partly Cloudy SCT055 SCT100 17 17 100% 76.17 0.0
05 02:15 E 9 16.09 Partly Cloudy SCT065 SCT070 SCT100 18 17 94% 76.17 0.0
05 01:55 E 9 16.09 Partly Cloudy SCT065 18 17 94% 76.17 0.0
05 01:35 E 9 16.09 Partly Cloudy SCT065 SCT100 18 18 100% 76.17 0.0
05 01:15 E 9 16.09 Partly Cloudy SCT065 SCT100 18 18 100% 76.17 0.0
05 00:55 E 11 16.09 Partly Cloudy SCT065 SCT100 18 18 100% 76.15 0.0
05 00:35 E 11 16.09 Partly Cloudy SCT065 18 18 100% 76.15 0.0
05 00:15 E 15 16.09 Partly Cloudy SCT065 SCT095 19 18 94% 76.15 0.0
04 23:55 E 13 16.09 Partly Cloudy SCT065 SCT095 19 18 94% 76.15 0.0
04 23:35 E 17 16.09 Partly Cloudy SCT065 SCT095 19 18 94% 76.15 0.0
04 23:15 E 15 16.09 Partly Cloudy SCT055 SCT065 SCT100 19 18 94% 76.15 0.0
04 22:55 E 17 16.09 Partly Cloudy SCT065 SCT070 19 18 94% 76.15 0.0
04 22:35 E 13 16.09 Partly Cloudy SCT065 SCT100 19 18 94% 76.17 0.0
04 22:15 E 13 16.09 Partly Cloudy SCT065 SCT100 19 18 94% 76.17 0.0
04 21:55 E 11 16.09 Partly Cloudy SCT055 SCT100 19 18 94% 76.17 0.0
04 21:35 E 13 16.09 Partly Cloudy SCT055 SCT100 20 18 88% 76.15 0.0
04 21:15 E 13 16.09 Partly Cloudy SCT065 SCT100 21 19 88% 76.15 0.0
04 20:55 E 13 16.09 Partly Cloudy SCT065 SCT100 21 19 88% 76.15 0.0
04 20:35 E 11 16.09 Partly Cloudy SCT065 21 19 88% 76.12 0.0
04 20:15 E 11 16.09 Partly Cloudy SCT065 SCT110 22 19 83% 76.12 0.0
04 19:55 E 11 16.09 Partly Cloudy SCT065 23 19 78% 76.1 0.0
04 19:35 E 15 16.09 Partly Cloudy SCT065 SCT100 24 19 74% 25 76.1 0.0
04 19:15 E 15 16.09 Partly Cloudy SCT065 25 20 74% 26 76.07 0.0
04 18:55 E 15 16.09 Partly Cloudy SCT065 SCT100 26 20 70% 27 76.1 0.0
04 18:35 E 15 16.09 Partly Cloudy SCT065 SCT110 27 21 70% 29 76.1 0.0
04 18:15 E 17 16.09 Partly Cloudy SCT100 27 21 70% 29 76.07 0.0
04 17:55 E 9 16.09 Partly Cloudy SCT060 SCT100 28 20 62% 30 76.07 0.0
04 17:35 SE 7 16.09 Partly Cloudy SCT100 28 19 58% 29 76.07 0.0
04 17:15 Calm 16.09 Partly Cloudy SCT065 28 19 58% 29 76.05 0.0
04 16:55 Calm 16.09 Fair CLR 27 19 62% 28 76.05 0.0
04 16:35 E 6 16.09 Partly Cloudy SCT039 28 20 62% 30 76.07 0.0
04 16:15 Calm 16.09 Partly Cloudy SCT039 SCT100 27 20 66% 29 76.07 0.0
04 15:55 NE 6 16.09 Partly Cloudy SCT070 SCT110 27 20 66% 29 76.07 0.0
04 15:35 Calm 16.09 Partly Cloudy SCT070 27 19 62% 28 76.07 0.0
04 15:15 Calm 16.09 Partly Cloudy SCT100 27 19 62% 28 76.1 0.0
04 14:55 Calm 16.09 Partly Cloudy SCT100 26 20 70% 27 76.1 0.0
04 14:35 Calm 16.09 Partly Cloudy SCT110 26 21 74% 27 76.1 0.0
04 14:15 Calm 16.09 Fair CLR 25 21 79% 26 76.1 0.0
04 13:55 Calm 16.09 Partly Cloudy SCT060 26 21 74% 27 76.12 0.0
04 13:35 Calm 16.09 Fair CLR 24 20 78% 24 76.1 0.0
04 13:15 Calm 16.09 Partly Cloudy SCT100 24 19 74% 25 76.1 0.0
04 12:55 Calm 16.09 Fair CLR 24 20 78% 24 76.12 0.0
04 12:35 Calm 16.09 Partly Cloudy SCT019 23 21 89% 76.12 0.0
04 12:15 Calm 16.09 Partly Cloudy SCT017 SCT065 SCT110 23 21 89% 76.12 0.0
04 11:55 Calm 16.09 Partly Cloudy SCT065 22 21 94% 76.1 0.0
04 11:35 N 7 16.09 Partly Cloudy SCT012 SCT065 22 21 94% 76.1 0.0
04 11:15 Calm 16.09 Partly Cloudy SCT012 SCT065 22 20 88% 76.1 0.0
04 10:55 Calm 16.09 Partly Cloudy SCT065 21 19 88% 76.1 0.0
04 10:35 Calm 16.09 Partly Cloudy SCT009 20 19 94% 76.1 0.0
04 10:15 NE 7 16.09 Mostly Cloudy BKN009 20 19 94% 76.07 0.0
04 09:55 Calm 16.09 Partly Cloudy SCT060 19 19 100% 76.07 0.0
04 09:35 Calm 16.09 Fair CLR 18 18 100% 76.07 0.0
04 09:15 Calm 16.09 Partly Cloudy SCT060 18 18 100% 76.05 0.0
04 08:55 Calm 16.09 Partly Cloudy SCT060 17 17 100% 76.05 0.0
04 08:35 NE 6 16.09 Partly Cloudy SCT060 SCT070 SCT100 17 17 100% 76.02 0.0
04 08:15 Calm 16.09 NULL NULL 16 16 100% 76.02 0.0
04 07:55 NE 6 0.80 Fog OVC002 15 15 100% 76.02 0.0
04 07:35 NE 6 0.24 Fog NULL 14 14 100% 76.02 0.0
04 07:15 Calm 0.24 Fog OVC002 14 14 100% 76.05 0.0
04 06:55 N 6 0.24 Fog NULL 14 14 100% 76.02 0.0
04 06:35 Calm 0.24 Fog OVC002 14 14 100% 76 0.0
04 06:15 Calm 0.80 Fog NULL 13 13 100% 76 0.0
04 05:55 Calm 0.40 Fog OVC002 14 14 100% 75.97 0.0
04 05:35 NW 6 0.24 Fog OVC002 13 13 100% 75.95 0.0
04 05:15 NW 7 0.24 Fog NULL 14 14 100% 75.95 0.0
04 04:55 NW 6 0.80 Fog NULL 13 13 100% 75.92 0.0
04 04:35 W 7 6.44 Fog/Mist SCT060 14 14 100% 75.92 0.0
04 04:15 Calm 4.83 Fog/Mist SCT060 SCT095 14 14 100% 75.9 0.0
04 03:55 NW 6 8.05 Fog/Mist SCT060 16 16 100% 75.9 0.0
04 03:35 Calm 16.09 Partly Cloudy SCT060 SCT100 16 16 100% 75.87 0.0
04 03:15 E 6 16.09 Partly Cloudy SCT060 SCT100 16 16 100% 75.84 0.0
04 02:55 E 6 16.09 Partly Cloudy SCT060 17 16 94% 75.84 0.0
04 02:35 E 9 16.09 Partly Cloudy SCT070 SCT100 17 16 94% 75.84 0.0
04 02:15 E 9 16.09 Partly Cloudy SCT060 SCT100 17 16 94% 75.84 0.0
04 01:55 E 9 16.09 Partly Cloudy SCT060 17 16 94% 75.87 0.0
04 01:35 E 9 16.09 Partly Cloudy SCT060 SCT100 17 17 100% 75.87 0.0
04 01:15 E 7 16.09 Partly Cloudy SCT060 16 16 100% 75.87 0.0
04 00:55 NE 7 16.09 Partly Cloudy SCT100 16 16 100% 75.87 0.0
04 00:35 Calm 16.09 Mostly Cloudy BKN100 17 17 100% 75.9 0.0
04 00:15 Calm 16.09 Overcast OVC100 17 17 100% 75.87 0.0
03 23:55 Calm 11.27 Overcast OVC100 17 17 100% 75.87 0.0
03 23:35 Calm 8.05 Fog/Mist OVC100 17 17 100% 75.87 0.0
03 23:15 NE 7 11.27 Mostly Cloudy SCT060 BKN100 17 17 100% 75.84 0.0
03 22:55 N 7 11.27 Mostly Cloudy SCT060 BKN110 17 17 100% 75.84 0.0
03 22:35 N 6 11.27 Mostly Cloudy BKN110 17 17 100% 75.82 0.0
03 22:15 N 6 8.05 Fog/Mist SCT060 BKN110 17 17 100% 75.79 0.0
03 21:55 Calm 8.05 Fog/Mist SCT060 BKN110 17 16 94% 75.79 0.0
03 21:35 Calm 16.09 Partly Cloudy SCT060 SCT100 17 17 100% 75.77 0.0
03 21:15 N 7 16.09 Partly Cloudy SCT060 SCT100 18 18 100% 75.77 0.0
03 20:55 N 7 16.09 Partly Cloudy SCT030 SCT060 SCT100 18 18 100% 75.82 0.0
03 20:35 Calm 16.09 Light Rain SCT023 BKN032 BKN060 19 18 94% 75.79 0.0
03 20:15 W 6 16.09 Light Drizzle BKN023 19 19 100% 75.84 0.0
03 19:55 NW 13 11.27 Light Rain BKN023 BKN034 19 19 100% 75.74 0.0
03 19:35 NW 19 G 33 16.09 Thunderstorm Light Rain in Vicinity BKN022 BKN047 19 19 100% 75.79 0.0
03 19:15 NW 24 G 35 16.09 Light Rain SCT022 19 19 100% 75.69 0.0
03 18:55 SE 15 G 26 16.09 Thunderstorm in Vicinity OVC120 19 19 100% 75.54 0.0
03 18:35 SE 19 G 30 16.09 Partly Cloudy SCT120 19 19 100% 75.44 0.0
03 18:15 E 24 G 39 16.09 Fair CLR 19 19 100% 75.44 0.0
03 17:55 E 19 G 28 16.09 Light Rain CLR 19 18 94% 75.46 0.0
03 17:35 E 22 G 35 16.09 Partly Cloudy SCT023 SCT038 SCT065 19 18 94% 75.46 0.0
03 17:15 E 26 G 37 11.27 Light Rain SCT027 SCT041 BKN060 19 18 94% 75.44 0.0
03 16:55 E 28 G 48 16.09 Thunderstorm in Vicinity SCT065 BKN070 19 18 94% 75.36 0.0
03 16:35 E 33 G 44 16.09 Light Drizzle and Breezy SCT028 BKN065 19 18 94% 75.44 0.0
03 16:15 E 41 G 59 16.09 Light Rain and Breezy SCT030 BKN046 BKN055 19 18 94% 75.41 0.0
03 15:55 E 28 G 43 16.09 Rain SCT028 BKN055 OVC070 19 18 94% 75.62 0.0
03 15:35 NE 35 G 46 16.09 Heavy Rain and Breezy SCT023 BKN046 OVC060 19 18 94% 75.62 0.0
03 15:15 E 30 G 39 16.09 Thunderstorm Light Rain in Vicinity SCT022 BKN048 OVC060 19 18 94% 75.72 0.0
03 14:55 E 17 16.09 Thunderstorm Light Rain in Vicinity SCT018 BKN031 OVC060 19 19 100% 75.84 0.0
03 14:35 E 9 11.27 Thunderstorm Light Rain in Vicinity BKN022 BKN033 OVC070 19 19 100% 75.9 0.0
03 14:15 NW 20 G 39 3.22 Thunderstorm Heavy Rain BKN023 BKN033 OVC080 21 19 88% 75.92 0.0 0.03
03 13:55 NE 15 16.09 Thunderstorm Light Rain in Vicinity SCT030 BKN065 OVC080 21 18 83% 75.84 0.0
03 13:35 N 17 16.09 Light Rain SCT032 BKN065 OVC100 22 18 78% 75.77 0.0
03 13:15 NE 9 16.09 Mostly Cloudy SCT048 SCT070 BKN110 24 17 65% 25 75.82 0.0
03 12:55 E 15 16.09 Partly Cloudy SCT085 24 17 65% 25 75.77 0.0
03 12:35 NE 13 16.09 Mostly Cloudy BKN085 25 17 61% 26 75.79 0.0
03 12:15 E 19 16.09 Fair CLR 25 17 61% 26 75.79 0.0
03 11:55 E 17 16.09 Fair CLR 26 17 58% 27 75.79 0.0
03 11:35 E 17 16.09 Fair CLR 26 17 58% 27 75.84 0.0
03 11:15 E 17 G 26 16.09 Fair CLR 26 17 58% 27 75.84 0.0
03 10:55 E 28 G 37 16.09 Fair CLR 25 17 61% 26 75.79 0.0
03 10:35 E 20 G 33 16.09 Fair CLR 24 17 65% 25 75.74 0.0
03 10:15 E 22 G 31 16.09 Fair CLR 24 17 65% 25 75.74 0.0
03 09:55 E 24 16.09 Fair CLR 23 17 69% 75.77 0.0
03 09:35 E 20 16.09 Fair CLR 22 17 73% 75.79 0.0
03 09:15 E 20 G 28 16.09 Fair CLR 20 17 83% 75.79 0.0
03 08:55 E 19 16.09 Fair CLR 20 17 83% 75.84 0.0
03 08:35 E 17 16.09 Partly Cloudy SCT070 18 16 88% 75.84 0.0
03 08:15 E 19 16.09 Partly Cloudy SCT060 18 16 88% 75.84 0.0
03 07:55 E 15 16.09 Partly Cloudy SCT060 17 16 94% 75.84 0.0
03 07:35 E 15 16.09 Partly Cloudy SCT060 16 15 94% 75.84 0.0
03 07:15 E 15 16.09 Partly Cloudy SCT060 15 14 94% 75.87 0.0
03 06:55 E 17 16.09 Partly Cloudy SCT060 15 14 94% 75.84 0.0
03 06:35 E 19 16.09 Partly Cloudy SCT060 15 14 94% 75.84 0.0
03 06:15 E 17 16.09 Partly Cloudy SCT060 15 14 94% 75.87 0.0
03 05:55 E 17 16.09 Partly Cloudy SCT060 SCT110 15 14 94% 75.87 0.0
03 05:35 E 15 16.09 Partly Cloudy SCT060 SCT110 16 14 88% 75.87 0.0
03 05:15 E 17 16.09 Partly Cloudy SCT060 SCT070 SCT110 15 14 94% 75.87 0.0
03 04:55 E 13 16.09 Partly Cloudy SCT060 16 14 88% 75.87 0.0
03 04:35 E 11 16.09 Partly Cloudy SCT060 15 14 94% 75.9 0.0
03 04:15 E 13 16.09 Partly Cloudy SCT060 SCT100 15 14 94% 75.9 0.0
03 03:35 E 11 16.09 Partly Cloudy SCT060 15 14 94% 75.9 0.0
03 03:15 E 13 16.09 Partly Cloudy SCT060 15 14 94% 75.9 0.0
03 02:55 E 13 16.09 Partly Cloudy SCT060 15 14 94% 75.92 0.0
03 02:35 E 9 16.09 Partly Cloudy SCT060 SCT100 15 14 94% 75.92 0.0
03 02:15 E 11 16.09 Partly Cloudy SCT060 SCT100 16 14 88% 75.95 0.0
03 01:55 E 11 16.09 Partly Cloudy SCT060 16 14 88% 75.92 0.0
Date Time (cdt) Wind (kph) Vis. (km) Weather Sky Cond. Air Dwpt Max. Min. Relative Humidity Wind Chill (°C) Heat Index (°C) altimeter (cm) sea level (mb) 1 hr 3 hr 6 hr
6 hour
Temperature (ºC) Pressure Precipitation (cm)